sensor_id;sensor_type;location;lat;lon;timestamp;pressure;altitude;pressure_sealevel;temperature;humidity
63652;BME280;49801;37.536;-122.304;2022-11-24T00:00:24;101949.66;;;16.58;44.58
63652;BME280;49801;37.536;-122.304;2022-11-24T00:00:50;101953.44;;;16.57;45.13
63652;BME280;49801;37.536;-122.304;2022-11-24T00:01:17;101955.13;;;16.58;45.33
63652;BME280;49801;37.536;-122.304;2022-11-24T00:01:43;101946.25;;;16.56;45.53
63652;BME280;49801;37.536;-122.304;2022-11-24T00:02:08;101948.31;;;16.54;45.73
63652;BME280;49801;37.536;-122.304;2022-11-24T00:02:34;101957.19;;;16.56;45.97
63652;BME280;49801;37.536;-122.304;2022-11-24T00:03:00;101955.47;;;16.55;46.07
63652;BME280;49801;37.536;-122.304;2022-11-24T00:03:26;101957.19;;;16.56;46.04
63652;BME280;49801;37.536;-122.304;2022-11-24T00:03:55;101947.97;;;16.57;46.23
63652;BME280;49801;37.536;-122.304;2022-11-24T00:04:21;101953.44;;;16.57;46.43
63652;BME280;49801;37.536;-122.304;2022-11-24T00:04:47;101947.97;;;16.57;46.78
63652;BME280;49801;37.536;-122.304;2022-11-24T00:05:13;101950.00;;;16.55;46.79
63652;BME280;49801;37.536;-122.304;2022-11-24T00:05:38;101954.81;;;16.53;46.97
63652;BME280;49801;37.536;-122.304;2022-11-24T00:06:05;101948.69;;;16.51;47.21
63652;BME280;49801;37.536;-122.304;2022-11-24T00:06:32;101956.22;;;16.49;47.46
63652;BME280;49801;37.536;-122.304;2022-11-24T00:06:59;101950.75;;;16.49;47.35
63652;BME280;49801;37.536;-122.304;2022-11-24T00:07:24;101959.97;;;16.48;47.69
63652;BME280;49801;37.536;-122.304;2022-11-24T00:07:50;101954.69;;;16.46;47.92
63652;BME280;49801;37.536;-122.304;2022-11-24T00:08:16;101952.13;;;16.45;48.11
63652;BME280;49801;37.536;-122.304;2022-11-24T00:08:43;101957.59;;;16.45;48.19
63652;BME280;49801;37.536;-122.304;2022-11-24T00:09:09;101961.22;;;16.45;48.27
63652;BME280;49801;37.536;-122.304;2022-11-24T00:09:35;101955.25;;;16.42;48.25
63652;BME280;49801;37.536;-122.304;2022-11-24T00:10:00;101955.25;;;16.42;48.38
63652;BME280;49801;37.536;-122.304;2022-11-24T00:10:26;101955.63;;;16.39;48.62
63652;BME280;49801;37.536;-122.304;2022-11-24T00:10:52;101955.63;;;16.39;49.15
63652;BME280;49801;37.536;-122.304;2022-11-24T00:11:19;101953.91;;;16.38;49.03
63652;BME280;49801;37.536;-122.304;2022-11-24T00:11:45;101958.69;;;16.36;49.56
63652;BME280;49801;37.536;-122.304;2022-11-24T00:12:11;101957.69;;;16.37;49.50
63652;BME280;49801;37.536;-122.304;2022-11-24T00:12:37;101955.97;;;16.36;49.62
63652;BME280;49801;37.536;-122.304;2022-11-24T00:13:02;101954.25;;;16.35;49.37
63652;BME280;49801;37.536;-122.304;2022-11-24T00:13:28;101961.44;;;16.36;49.63
63652;BME280;49801;37.536;-122.304;2022-11-24T00:13:54;101956.31;;;16.33;49.91
63652;BME280;49801;37.536;-122.304;2022-11-24T00:14:20;101946.13;;;16.26;50.67
63652;BME280;49801;37.536;-122.304;2022-11-24T00:14:46;101958.41;;;16.30;51.08
63652;BME280;49801;37.536;-122.304;2022-11-24T00:15:12;101957.06;;;16.26;51.53
63652;BME280;49801;37.536;-122.304;2022-11-24T00:15:38;101964.22;;;16.27;51.15
63652;BME280;49801;37.536;-122.304;2022-11-24T00:16:04;101958.75;;;16.27;51.21
63652;BME280;49801;37.536;-122.304;2022-11-24T00:16:31;101963.19;;;16.28;50.80
63652;BME280;49801;37.536;-122.304;2022-11-24T00:16:57;101962.31;;;16.28;51.02
63652;BME280;49801;37.536;-122.304;2022-11-24T00:17:23;101959.81;;;16.26;51.14
63652;BME280;49801;37.536;-122.304;2022-11-24T00:17:48;101953.47;;;16.26;50.93
63652;BME280;49801;37.536;-122.304;2022-11-24T00:18:14;101962.88;;;16.23;51.99
63652;BME280;49801;37.536;-122.304;2022-11-24T00:18:41;101960.34;;;16.22;52.15
63652;BME280;49801;37.536;-122.304;2022-11-24T00:19:07;101962.22;;;16.21;51.97
63652;BME280;49801;37.536;-122.304;2022-11-24T00:19:34;101964.97;;;16.21;52.19
63652;BME280;49801;37.536;-122.304;2022-11-24T00:19:59;101957.78;;;16.20;51.99
63652;BME280;49801;37.536;-122.304;2022-11-24T00:20:25;101965.31;;;16.18;51.80
63652;BME280;49801;37.536;-122.304;2022-11-24T00:20:51;101961.91;;;16.16;52.10
63652;BME280;49801;37.536;-122.304;2022-11-24T00:21:17;101955.75;;;16.14;52.09
63652;BME280;49801;37.536;-122.304;2022-11-24T00:21:43;101962.25;;;16.13;51.97
63652;BME280;49801;37.536;-122.304;2022-11-24T00:22:09;101964.34;;;16.11;52.15
63652;BME280;49801;37.536;-122.304;2022-11-24T00:22:35;101966.38;;;16.09;52.63
63652;BME280;49801;37.536;-122.304;2022-11-24T00:23:01;101964.69;;;16.08;52.34
63652;BME280;49801;37.536;-122.304;2022-11-24T00:23:27;101965.03;;;16.05;52.32
63652;BME280;49801;37.536;-122.304;2022-11-24T00:23:52;101963.31;;;16.04;52.35
63652;BME280;49801;37.536;-122.304;2022-11-24T00:24:18;101959.09;;;16.01;52.30
63652;BME280;49801;37.536;-122.304;2022-11-24T00:24:44;101962.00;;;16.00;52.53
63652;BME280;49801;37.536;-122.304;2022-11-24T00:25:10;101965.06;;;15.97;52.95
63652;BME280;49801;37.536;-122.304;2022-11-24T00:25:36;101959.97;;;15.93;52.96
63652;BME280;49801;37.536;-122.304;2022-11-24T00:26:02;101964.75;;;15.91;52.86
63652;BME280;49801;37.536;-122.304;2022-11-24T00:26:32;101960.53;;;15.89;53.67
63652;BME280;49801;37.536;-122.304;2022-11-24T00:26:58;101963.44;;;15.87;53.83
63652;BME280;49801;37.536;-122.304;2022-11-24T00:27:24;101956.25;;;15.86;53.68
63652;BME280;49801;37.536;-122.304;2022-11-24T00:27:51;101959.16;;;15.85;53.81
63652;BME280;49801;37.536;-122.304;2022-11-24T00:28:16;101959.16;;;15.85;53.86
63652;BME280;49801;37.536;-122.304;2022-11-24T00:28:42;101962.06;;;15.83;54.13
63652;BME280;49801;37.536;-122.304;2022-11-24T00:29:09;101965.84;;;15.82;53.85
63652;BME280;49801;37.536;-122.304;2022-11-24T00:29:35;101962.44;;;15.80;54.21
63652;BME280;49801;37.536;-122.304;2022-11-24T00:30:01;101964.50;;;15.78;54.27
63652;BME280;49801;37.536;-122.304;2022-11-24T00:30:27;101960.22;;;15.75;53.96
63652;BME280;49801;37.536;-122.304;2022-11-24T00:30:53;101966.88;;;15.73;54.14
63652;BME280;49801;37.536;-122.304;2022-11-24T00:31:22;101958.88;;;15.71;54.09
63652;BME280;49801;37.536;-122.304;2022-11-24T00:31:48;101969.28;;;15.68;54.17
63652;BME280;49801;37.536;-122.304;2022-11-24T00:32:14;101965.03;;;15.65;54.07
63652;BME280;49801;37.536;-122.304;2022-11-24T00:32:40;101965.38;;;15.62;54.27
63652;BME280;49801;37.536;-122.304;2022-11-24T00:33:06;101972.03;;;15.60;54.17
63652;BME280;49801;37.536;-122.304;2022-11-24T00:33:31;101970.50;;;15.57;54.59
63652;BME280;49801;37.536;-122.304;2022-11-24T00:33:58;101972.72;;;15.53;54.67
63652;BME280;49801;37.536;-122.304;2022-11-24T00:34:24;101971.22;;;15.51;54.76
63652;BME280;49801;37.536;-122.304;2022-11-24T00:34:50;101969.69;;;15.48;54.93
63652;BME280;49801;37.536;-122.304;2022-11-24T00:35:16;101967.28;;;15.45;55.20
63652;BME280;49801;37.536;-122.304;2022-11-24T00:35:42;101974.97;;;15.42;55.10
63652;BME280;49801;37.536;-122.304;2022-11-24T00:36:07;101972.59;;;15.38;55.07
63652;BME280;49801;37.536;-122.304;2022-11-24T00:36:34;101965.63;;;15.36;55.30
63652;BME280;49801;37.536;-122.304;2022-11-24T00:37:00;101966.84;;;15.33;55.35
63652;BME280;49801;37.536;-122.304;2022-11-24T00:37:26;101966.31;;;15.30;55.95
63652;BME280;49801;37.536;-122.304;2022-11-24T00:37:51;101968.53;;;15.26;55.62
63652;BME280;49801;37.536;-122.304;2022-11-24T00:38:18;101972.47;;;15.24;56.07
63652;BME280;49801;37.536;-122.304;2022-11-24T00:38:44;101965.66;;;15.19;56.08
63652;BME280;49801;37.536;-122.304;2022-11-24T00:39:11;101964.97;;;15.17;56.32
63652;BME280;49801;37.536;-122.304;2022-11-24T00:39:37;101970.78;;;15.14;56.20
63652;BME280;49801;37.536;-122.304;2022-11-24T00:40:03;101971.81;;;15.13;56.25
63652;BME280;49801;37.536;-122.304;2022-11-24T00:40:29;101919.00;;;14.81;56.43
63652;BME280;49801;37.536;-122.304;2022-11-24T00:40:55;101972.50;;;15.07;56.57
63652;BME280;49801;37.536;-122.304;2022-11-24T00:41:21;101969.09;;;15.05;56.70
63652;BME280;49801;37.536;-122.304;2022-11-24T00:41:47;101966.69;;;15.02;56.99
63652;BME280;49801;37.536;-122.304;2022-11-24T00:42:13;101976.94;;;15.00;57.02
63652;BME280;49801;37.536;-122.304;2022-11-24T00:42:39;101974.56;;;14.97;56.98
63652;BME280;49801;37.536;-122.304;2022-11-24T00:43:05;101976.78;;;14.93;57.20
63652;BME280;49801;37.536;-122.304;2022-11-24T00:43:30;101973.38;;;14.91;57.33
63652;BME280;49801;37.536;-122.304;2022-11-24T00:43:57;101975.59;;;14.88;57.40
63652;BME280;49801;37.536;-122.304;2022-11-24T00:44:23;101979.50;;;14.85;57.83
63652;BME280;49801;37.536;-122.304;2022-11-24T00:44:49;101975.25;;;14.82;58.15
63652;BME280;49801;37.536;-122.304;2022-11-24T00:45:14;101971.84;;;14.80;58.19
63652;BME280;49801;37.536;-122.304;2022-11-24T00:45:40;101975.75;;;14.78;58.23
63652;BME280;49801;37.536;-122.304;2022-11-24T00:46:06;101980.53;;;14.76;58.43
63652;BME280;49801;37.536;-122.304;2022-11-24T00:46:32;101976.28;;;14.73;58.54
63652;BME280;49801;37.536;-122.304;2022-11-24T00:46:58;101975.56;;;14.71;58.74
63652;BME280;49801;37.536;-122.304;2022-11-24T00:47:24;101975.94;;;14.68;59.05
63652;BME280;49801;37.536;-122.304;2022-11-24T00:47:50;101976.09;;;14.67;59.27
63652;BME280;49801;37.536;-122.304;2022-11-24T00:48:15;101979.00;;;14.65;59.13
63652;BME280;49801;37.536;-122.304;2022-11-24T00:48:41;101977.63;;;14.61;59.20
63652;BME280;49801;37.536;-122.304;2022-11-24T00:49:07;101979.66;;;14.59;59.44
63652;BME280;49801;37.536;-122.304;2022-11-24T00:49:33;101978.97;;;14.57;59.55
63652;BME280;49801;37.536;-122.304;2022-11-24T00:50:00;101986.63;;;14.53;59.62
63652;BME280;49801;37.536;-122.304;2022-11-24T00:50:26;101983.22;;;14.51;59.56
63652;BME280;49801;37.536;-122.304;2022-11-24T00:50:55;101986.09;;;14.50;59.63
63652;BME280;49801;37.536;-122.304;2022-11-24T00:51:24;101982.00;;;14.45;59.67
63652;BME280;49801;37.536;-122.304;2022-11-24T00:51:54;101979.63;;;14.42;59.70
63652;BME280;49801;37.536;-122.304;2022-11-24T00:52:20;101985.41;;;14.39;59.74
63652;BME280;49801;37.536;-122.304;2022-11-24T00:52:46;101984.72;;;14.37;59.94
63652;BME280;49801;37.536;-122.304;2022-11-24T00:53:11;101989.47;;;14.35;59.77
63652;BME280;49801;37.536;-122.304;2022-11-24T00:53:37;101984.38;;;14.32;59.64
63652;BME280;49801;37.536;-122.304;2022-11-24T00:54:03;101987.28;;;14.31;59.71
63652;BME280;49801;37.536;-122.304;2022-11-24T00:54:30;101992.19;;;14.27;59.42
63652;BME280;49801;37.536;-122.304;2022-11-24T00:54:56;101994.22;;;14.25;59.44
63652;BME280;49801;37.536;-122.304;2022-11-24T00:55:22;101997.28;;;14.22;59.52
63652;BME280;49801;37.536;-122.304;2022-11-24T00:55:48;101982.97;;;14.20;59.35
63652;BME280;49801;37.536;-122.304;2022-11-24T00:56:14;101985.00;;;14.18;59.13
63652;BME280;49801;37.536;-122.304;2022-11-24T00:56:40;101990.78;;;14.15;59.21
63652;BME280;49801;37.536;-122.304;2022-11-24T00:57:06;101994.69;;;14.12;59.28
63652;BME280;49801;37.536;-122.304;2022-11-24T00:57:33;101999.63;;;14.09;59.26
63652;BME280;49801;37.536;-122.304;2022-11-24T00:57:59;101995.34;;;14.06;58.93
63652;BME280;49801;37.536;-122.304;2022-11-24T00:58:25;101996.56;;;14.03;58.64
63652;BME280;49801;37.536;-122.304;2022-11-24T00:58:51;101995.00;;;14.01;58.40
63652;BME280;49801;37.536;-122.304;2022-11-24T00:59:17;101997.03;;;13.99;58.40
63652;BME280;49801;37.536;-122.304;2022-11-24T00:59:43;101998.22;;;13.96;58.29
63652;BME280;49801;37.536;-122.304;2022-11-24T01:00:08;102000.28;;;13.94;58.19
63652;BME280;49801;37.536;-122.304;2022-11-24T01:00:34;101996.16;;;13.90;58.38
63652;BME280;49801;37.536;-122.304;2022-11-24T01:01:05;101991.03;;;13.87;58.27
63652;BME280;49801;37.536;-122.304;2022-11-24T01:01:31;101991.38;;;13.84;58.30
63652;BME280;49801;37.536;-122.304;2022-11-24T01:01:57;101994.28;;;13.82;58.19
63652;BME280;49801;37.536;-122.304;2022-11-24T01:02:22;101993.75;;;13.79;58.01
63652;BME280;49801;37.536;-122.304;2022-11-24T01:02:48;101995.75;;;13.77;57.92
63652;BME280;49801;37.536;-122.304;2022-11-24T01:03:14;101996.09;;;13.74;58.13
63652;BME280;49801;37.536;-122.304;2022-11-24T01:03:41;101996.41;;;13.71;57.98
63652;BME280;49801;37.536;-122.304;2022-11-24T01:04:06;101998.47;;;13.68;57.80
63652;BME280;49801;37.536;-122.304;2022-11-24T01:04:32;101998.78;;;13.65;57.86
63652;BME280;49801;37.536;-122.304;2022-11-24T01:04:58;102000.81;;;13.63;57.60
63652;BME280;49801;37.536;-122.304;2022-11-24T01:05:24;101996.69;;;13.59;57.61
63652;BME280;49801;37.536;-122.304;2022-11-24T01:05:50;102001.44;;;13.57;57.92
63652;BME280;49801;37.536;-122.304;2022-11-24T01:06:16;101997.34;;;13.53;57.91
63652;BME280;49801;37.536;-122.304;2022-11-24T01:06:42;102002.97;;;13.52;58.02
63652;BME280;49801;37.536;-122.304;2022-11-24T01:07:08;102007.88;;;13.48;57.87
63652;BME280;49801;37.536;-122.304;2022-11-24T01:07:34;102007.16;;;13.46;57.96
63652;BME280;49801;37.536;-122.304;2022-11-24T01:08:00;102004.78;;;13.43;57.74
63652;BME280;49801;37.536;-122.304;2022-11-24T01:08:25;102000.50;;;13.40;57.98
63652;BME280;49801;37.536;-122.304;2022-11-24T01:08:51;102005.25;;;13.38;57.76
63652;BME280;49801;37.536;-122.304;2022-11-24T01:09:17;101999.97;;;13.37;57.71
63652;BME280;49801;37.536;-122.304;2022-11-24T01:09:43;102009.47;;;13.32;57.75
63652;BME280;49801;37.536;-122.304;2022-11-24T01:10:09;102000.56;;;13.30;57.71
63652;BME280;49801;37.536;-122.304;2022-11-24T01:10:35;102004.31;;;13.29;57.84
63652;BME280;49801;37.536;-122.304;2022-11-24T01:11:08;102005.63;;;13.25;57.99
63652;BME280;49801;37.536;-122.304;2022-11-24T01:11:34;102009.69;;;13.21;57.86
63652;BME280;49801;37.536;-122.304;2022-11-24T01:12:18;102007.28;;;13.18;57.71
63652;BME280;49801;37.536;-122.304;2022-11-24T01:12:44;102009.63;;;13.13;58.11
63652;BME280;49801;37.536;-122.304;2022-11-24T01:13:10;102014.38;;;13.11;58.18
63652;BME280;49801;37.536;-122.304;2022-11-24T01:13:37;102014.69;;;13.08;58.23
63652;BME280;49801;37.536;-122.304;2022-11-24T01:14:03;102013.31;;;13.04;58.25
63652;BME280;49801;37.536;-122.304;2022-11-24T01:14:29;102011.59;;;13.03;58.38
63652;BME280;49801;37.536;-122.304;2022-11-24T01:14:55;102013.78;;;12.99;58.31
63652;BME280;49801;37.536;-122.304;2022-11-24T01:15:21;102012.94;;;12.99;58.32
63652;BME280;49801;37.536;-122.304;2022-11-24T01:15:47;102015.94;;;12.95;58.04
63652;BME280;49801;37.536;-122.304;2022-11-24T01:16:31;102016.97;;;12.94;58.04
63652;BME280;49801;37.536;-122.304;2022-11-24T01:16:58;102010.13;;;12.90;58.19
63652;BME280;49801;37.536;-122.304;2022-11-24T01:17:23;102013.88;;;12.89;58.17
63652;BME280;49801;37.536;-122.304;2022-11-24T01:17:49;102008.75;;;12.86;57.99
63652;BME280;49801;37.536;-122.304;2022-11-24T01:18:15;102015.34;;;12.84;58.15
63652;BME280;49801;37.536;-122.304;2022-11-24T01:18:41;102018.22;;;12.82;58.10
63652;BME280;49801;37.536;-122.304;2022-11-24T01:19:06;102009.38;;;12.80;58.13
63652;BME280;49801;37.536;-122.304;2022-11-24T01:19:32;102003.25;;;12.78;58.32
63652;BME280;49801;37.536;-122.304;2022-11-24T01:19:58;102013.41;;;12.76;58.35
63652;BME280;49801;37.536;-122.304;2022-11-24T01:20:24;102013.72;;;12.73;58.29
63652;BME280;49801;37.536;-122.304;2022-11-24T01:20:49;102015.75;;;12.71;58.34
63652;BME280;49801;37.536;-122.304;2022-11-24T01:21:15;102015.91;;;12.69;58.47
63652;BME280;49801;37.536;-122.304;2022-11-24T01:21:41;102008.06;;;12.66;58.30
63652;BME280;49801;37.536;-122.304;2022-11-24T01:22:07;102007.22;;;12.66;58.42
63652;BME280;49801;37.536;-122.304;2022-11-24T01:22:33;102018.38;;;12.63;58.34
63652;BME280;49801;37.536;-122.304;2022-11-24T01:22:59;102020.41;;;12.61;58.24
63652;BME280;49801;37.536;-122.304;2022-11-24T01:23:25;102018.84;;;12.58;58.36
63652;BME280;49801;37.536;-122.304;2022-11-24T01:23:50;102024.41;;;12.56;58.38
63652;BME280;49801;37.536;-122.304;2022-11-24T01:24:16;102024.75;;;12.53;58.63
63652;BME280;49801;37.536;-122.304;2022-11-24T01:24:42;102020.31;;;12.52;58.55
63652;BME280;49801;37.536;-122.304;2022-11-24T01:25:09;102017.75;;;12.51;58.75
63652;BME280;49801;37.536;-122.304;2022-11-24T01:25:37;102019.78;;;12.49;58.76
63652;BME280;49801;37.536;-122.304;2022-11-24T01:26:04;102026.34;;;12.46;58.69
63652;BME280;49801;37.536;-122.304;2022-11-24T01:26:30;102021.94;;;12.45;58.67
63652;BME280;49801;37.536;-122.304;2022-11-24T01:26:56;102023.97;;;12.43;58.74
63652;BME280;49801;37.536;-122.304;2022-11-24T01:27:22;102025.97;;;12.41;58.87
63652;BME280;49801;37.536;-122.304;2022-11-24T01:27:48;102023.44;;;12.40;58.92
63652;BME280;49801;37.536;-122.304;2022-11-24T01:28:13;102024.41;;;12.38;58.79
63652;BME280;49801;37.536;-122.304;2022-11-24T01:28:39;102021.00;;;12.36;59.02
63652;BME280;49801;37.536;-122.304;2022-11-24T01:29:05;102023.88;;;12.35;59.23
63652;BME280;49801;37.536;-122.304;2022-11-24T01:29:31;102019.44;;;12.34;59.24
63652;BME280;49801;37.536;-122.304;2022-11-24T01:29:57;102021.47;;;12.32;59.33
63652;BME280;49801;37.536;-122.304;2022-11-24T01:30:22;102023.47;;;12.30;59.45
63652;BME280;49801;37.536;-122.304;2022-11-24T01:30:57;102022.63;;;12.29;59.60
63652;BME280;49801;37.536;-122.304;2022-11-24T01:31:24;102024.63;;;12.27;59.69
63652;BME280;49801;37.536;-122.304;2022-11-24T01:31:50;102030.38;;;12.24;59.77
63652;BME280;49801;37.536;-122.304;2022-11-24T01:32:16;102025.94;;;12.23;59.73
63652;BME280;49801;37.536;-122.304;2022-11-24T01:32:41;102030.69;;;12.21;60.01
63652;BME280;49801;37.536;-122.304;2022-11-24T01:33:07;102033.56;;;12.19;59.89
63652;BME280;49801;37.536;-122.304;2022-11-24T01:33:33;102030.13;;;12.17;59.97
63652;BME280;49801;37.536;-122.304;2022-11-24T01:33:59;102024.72;;;12.17;59.97
63652;BME280;49801;37.536;-122.304;2022-11-24T01:34:25;102029.44;;;12.15;60.25
63652;BME280;49801;37.536;-122.304;2022-11-24T01:34:51;102029.44;;;12.15;60.27
63652;BME280;49801;37.536;-122.304;2022-11-24T01:35:17;102028.72;;;12.13;60.35
63652;BME280;49801;37.536;-122.304;2022-11-24T01:35:42;102027.88;;;12.13;60.24
63652;BME280;49801;37.536;-122.304;2022-11-24T01:36:08;102031.75;;;12.10;60.32
63652;BME280;49801;37.536;-122.304;2022-11-24T01:36:34;102031.91;;;12.09;60.30
63652;BME280;49801;37.536;-122.304;2022-11-24T01:37:00;102029.34;;;12.07;60.28
63652;BME280;49801;37.536;-122.304;2022-11-24T01:37:25;102025.91;;;12.05;60.40
63652;BME280;49801;37.536;-122.304;2022-11-24T01:37:51;102024.19;;;12.04;60.52
63652;BME280;49801;37.536;-122.304;2022-11-24T01:38:17;102032.50;;;12.03;60.68
63652;BME280;49801;37.536;-122.304;2022-11-24T01:38:43;102023.78;;;11.99;60.77
63652;BME280;49801;37.536;-122.304;2022-11-24T01:39:08;102030.22;;;11.98;60.69
63652;BME280;49801;37.536;-122.304;2022-11-24T01:39:34;102027.66;;;11.96;60.69
63652;BME280;49801;37.536;-122.304;2022-11-24T01:40:00;102021.69;;;11.93;60.81
63652;BME280;49801;37.536;-122.304;2022-11-24T01:40:26;102025.41;;;11.92;60.75
63652;BME280;49801;37.536;-122.304;2022-11-24T01:41:05;102027.41;;;11.90;61.01
63652;BME280;49801;37.536;-122.304;2022-11-24T01:41:31;102023.94;;;11.88;61.12
63652;BME280;49801;37.536;-122.304;2022-11-24T01:42:00;102025.97;;;11.86;60.99
63652;BME280;49801;37.536;-122.304;2022-11-24T01:42:35;102027.13;;;11.83;60.93
63652;BME280;49801;37.536;-122.304;2022-11-24T01:43:01;102022.84;;;11.80;61.06
63652;BME280;49801;37.536;-122.304;2022-11-24T01:43:27;102024.88;;;11.78;61.21
63652;BME280;49801;37.536;-122.304;2022-11-24T01:43:53;102032.31;;;11.76;61.45
63652;BME280;49801;37.536;-122.304;2022-11-24T01:44:25;102030.56;;;11.75;61.19
63652;BME280;49801;37.536;-122.304;2022-11-24T01:45:37;102025.75;;;11.69;61.63
63652;BME280;49801;37.536;-122.304;2022-11-24T01:46:14;102030.47;;;11.67;61.92
63652;BME280;49801;37.536;-122.304;2022-11-24T01:46:42;102035.19;;;11.65;61.81
63652;BME280;49801;37.536;-122.304;2022-11-24T01:47:37;102033.78;;;11.61;62.18
63652;BME280;49801;37.536;-122.304;2022-11-24T01:48:12;102035.81;;;11.59;61.94
63652;BME280;49801;37.536;-122.304;2022-11-24T01:48:41;102030.66;;;11.56;62.41
63652;BME280;49801;37.536;-122.304;2022-11-24T01:49:10;102020.09;;;11.53;62.61
63652;BME280;49801;37.536;-122.304;2022-11-24T01:49:42;102039.22;;;11.51;62.39
63652;BME280;49801;37.536;-122.304;2022-11-24T01:50:12;102030.41;;;11.49;62.56
63652;BME280;49801;37.536;-122.304;2022-11-24T01:50:38;102035.97;;;11.48;62.70
63652;BME280;49801;37.536;-122.304;2022-11-24T01:51:07;102028.13;;;11.44;62.58
63652;BME280;49801;37.536;-122.304;2022-11-24T01:51:36;102031.84;;;11.43;62.81
63652;BME280;49801;37.536;-122.304;2022-11-24T01:52:35;102036.72;;;11.40;63.04
63652;BME280;49801;37.536;-122.304;2022-11-24T01:53:02;102035.84;;;11.39;63.08
63652;BME280;49801;37.536;-122.304;2022-11-24T01:53:29;102032.41;;;11.37;62.90
63652;BME280;49801;37.536;-122.304;2022-11-24T01:53:59;102036.16;;;11.36;63.20
63652;BME280;49801;37.536;-122.304;2022-11-24T01:54:28;102032.69;;;11.34;62.97
63652;BME280;49801;37.536;-122.304;2022-11-24T01:54:56;102035.72;;;11.31;63.25
63652;BME280;49801;37.536;-122.304;2022-11-24T01:55:26;102035.00;;;11.29;63.36
63652;BME280;49801;37.536;-122.304;2022-11-24T01:55:55;102038.72;;;11.28;63.61
63652;BME280;49801;37.536;-122.304;2022-11-24T01:56:21;102033.59;;;11.25;63.47
63652;BME280;49801;37.536;-122.304;2022-11-24T01:56:48;102042.72;;;11.24;63.52
63652;BME280;49801;37.536;-122.304;2022-11-24T01:57:25;102032.88;;;11.23;63.72
63652;BME280;49801;37.536;-122.304;2022-11-24T01:57:54;102043.03;;;11.21;64.07
63652;BME280;49801;37.536;-122.304;2022-11-24T01:58:23;102033.31;;;11.18;64.08
63652;BME280;49801;37.536;-122.304;2022-11-24T01:58:51;102047.00;;;11.17;64.02
63652;BME280;49801;37.536;-122.304;2022-11-24T01:59:21;102048.03;;;11.16;64.09
63652;BME280;49801;37.536;-122.304;2022-11-24T01:59:47;102045.59;;;11.13;63.94
63652;BME280;49801;37.536;-122.304;2022-11-24T02:00:15;102043.88;;;11.12;63.64
63652;BME280;49801;37.536;-122.304;2022-11-24T02:00:41;102040.47;;;11.10;63.92
63652;BME280;49801;37.536;-122.304;2022-11-24T02:01:09;102044.16;;;11.08;64.11
63652;BME280;49801;37.536;-122.304;2022-11-24T02:01:35;102040.75;;;11.06;64.02
63652;BME280;49801;37.536;-122.304;2022-11-24T02:02:01;102040.75;;;11.06;64.56
63652;BME280;49801;37.536;-122.304;2022-11-24T02:02:27;102039.06;;;11.05;64.26
63652;BME280;49801;37.536;-122.304;2022-11-24T02:02:53;102041.03;;;11.03;64.58
63652;BME280;49801;37.536;-122.304;2022-11-24T02:03:23;102039.47;;;11.01;64.63
63652;BME280;49801;37.536;-122.304;2022-11-24T02:03:50;102049.47;;;11.00;64.55
63652;BME280;49801;37.536;-122.304;2022-11-24T02:04:18;102045.03;;;10.99;64.57
63652;BME280;49801;37.536;-122.304;2022-11-24T02:04:48;102043.44;;;10.97;64.85
63652;BME280;49801;37.536;-122.304;2022-11-24T02:05:16;102043.63;;;10.95;64.74
63652;BME280;49801;37.536;-122.304;2022-11-24T02:05:49;102040.19;;;10.93;64.77
63652;BME280;49801;37.536;-122.304;2022-11-24T02:06:17;102036.75;;;10.91;65.22
63652;BME280;49801;37.536;-122.304;2022-11-24T02:06:45;102041.47;;;10.89;64.90
63652;BME280;49801;37.536;-122.304;2022-11-24T02:07:12;102039.94;;;10.86;65.09
63652;BME280;49801;37.536;-122.304;2022-11-24T02:07:39;102037.34;;;10.85;65.21
63652;BME280;49801;37.536;-122.304;2022-11-24T02:08:04;102042.03;;;10.83;65.42
63652;BME280;49801;37.536;-122.304;2022-11-24T02:09:18;102043.31;;;10.79;65.65
63652;BME280;49801;37.536;-122.304;2022-11-24T02:09:50;102043.59;;;10.76;65.41
63652;BME280;49801;37.536;-122.304;2022-11-24T02:10:17;102043.75;;;10.74;65.71
63652;BME280;49801;37.536;-122.304;2022-11-24T02:10:43;102043.88;;;10.73;65.65
63652;BME280;49801;37.536;-122.304;2022-11-24T02:11:10;102045.19;;;10.68;66.24
63652;BME280;49801;37.536;-122.304;2022-11-24T02:11:37;102039.06;;;10.66;66.24
63652;BME280;49801;37.536;-122.304;2022-11-24T02:12:03;102040.19;;;10.64;66.51
63652;BME280;49801;37.536;-122.304;2022-11-24T02:12:29;102040.31;;;10.62;66.47
63652;BME280;49801;37.536;-122.304;2022-11-24T02:12:56;102037.03;;;10.59;66.58
63652;BME280;49801;37.536;-122.304;2022-11-24T02:13:23;102041.59;;;10.58;66.57
63652;BME280;49801;37.536;-122.304;2022-11-24T02:13:50;102039.88;;;10.57;66.70
63652;BME280;49801;37.536;-122.304;2022-11-24T02:14:16;102041.88;;;10.55;66.99
63652;BME280;49801;37.536;-122.304;2022-11-24T02:14:43;102037.47;;;10.54;66.88
63652;BME280;49801;37.536;-122.304;2022-11-24T02:15:09;102038.47;;;10.53;66.94
63652;BME280;49801;37.536;-122.304;2022-11-24T02:15:36;102034.19;;;10.50;66.91
63652;BME280;49801;37.536;-122.304;2022-11-24T02:16:02;102038.03;;;10.48;66.91
63652;BME280;49801;37.536;-122.304;2022-11-24T02:16:29;102040.72;;;10.48;66.84
63652;BME280;49801;37.536;-122.304;2022-11-24T02:16:55;102032.75;;;10.46;67.06
63652;BME280;49801;37.536;-122.304;2022-11-24T02:17:21;102035.59;;;10.45;67.04